createdAt,value
2023-02-22T00:02:24.526Z,7.80
2023-02-22T00:04:54.278Z,7.70
2023-02-22T00:07:24.012Z,7.60
2023-02-22T00:09:51.216Z,7.50
2023-02-22T00:12:18.514Z,7.70
2023-02-22T00:14:45.749Z,7.70
2023-02-22T00:17:13.530Z,7.80
2023-02-22T00:19:43.003Z,7.90
2023-02-22T00:22:12.611Z,7.90
2023-02-22T00:24:41.974Z,7.90
2023-02-22T00:27:11.705Z,8.00
2023-02-22T00:29:41.070Z,8.00
2023-02-22T00:32:10.805Z,7.80
2023-02-22T00:34:38.203Z,7.80
2023-02-22T00:37:07.898Z,7.80
2023-02-22T00:39:35.177Z,7.80
2023-02-22T00:42:02.655Z,8.00
2023-02-22T00:44:29.882Z,8.10
2023-02-22T00:46:57.122Z,8.10
2023-02-22T00:49:24.380Z,8.20
2023-02-22T00:51:56.103Z,8.10
2023-02-22T00:54:25.636Z,8.20
2023-02-22T00:56:58.224Z,8.00
2023-02-22T00:59:28.287Z,7.90
2023-02-22T01:01:55.559Z,8.00
2023-02-22T01:04:25.274Z,7.90
2023-02-22T01:06:55.660Z,7.70
2023-02-22T01:09:23.014Z,7.70
2023-02-22T01:11:56.855Z,7.60
2023-02-22T01:14:26.654Z,7.80
2023-02-22T01:16:55.319Z,7.90
2023-02-22T01:19:25.781Z,8.00
2023-02-22T01:21:54.576Z,8.00
2023-02-22T01:24:24.302Z,8.00
2023-02-22T01:26:52.531Z,7.80
2023-02-22T01:29:21.199Z,7.70
2023-02-22T01:31:54.559Z,7.70
2023-02-22T01:34:22.462Z,7.70
2023-02-22T01:36:49.794Z,7.80
2023-02-22T01:39:17.937Z,7.80
2023-02-22T01:41:46.208Z,7.80
2023-02-22T01:44:37.809Z,7.70
2023-02-22T01:47:06.436Z,7.90
2023-02-22T01:49:46.516Z,7.70
2023-02-22T01:52:23.805Z,7.40
2023-02-22T01:54:58.268Z,7.30
2023-02-22T01:57:34.495Z,7.10
2023-02-22T02:00:11.520Z,7.20
2023-02-22T02:02:45.987Z,7.40
2023-02-22T02:05:13.872Z,7.20
2023-02-22T02:07:41.341Z,7.30
2023-02-22T02:10:17.029Z,7.50
2023-02-22T02:12:49.387Z,7.40
2023-02-22T02:15:19.458Z,7.50
2023-02-22T02:17:52.008Z,7.40
2023-02-22T02:20:49.971Z,7.30
2023-02-22T02:23:25.814Z,7.20
2023-02-22T02:26:30.474Z,7.10
2023-02-22T02:29:03.742Z,6.90
2023-02-22T02:31:52.058Z,7.00
2023-02-22T02:34:52.653Z,7.10
2023-02-22T02:37:33.232Z,7.10
2023-02-22T02:40:12.363Z,7.20
2023-02-22T02:42:51.346Z,7.20
2023-02-22T02:45:27.923Z,7.20
2023-02-22T02:48:01.430Z,7.10
2023-02-22T02:50:43.920Z,7.10
2023-02-22T02:53:13.527Z,7.20
2023-02-22T02:55:40.775Z,7.10
2023-02-22T02:58:08.668Z,7.00
2023-02-22T03:00:40.783Z,6.90
2023-02-22T03:03:23.889Z,6.60
2023-02-22T03:06:32.559Z,6.60
2023-02-22T03:09:47.734Z,6.60
2023-02-22T03:12:39.961Z,6.60
2023-02-22T03:15:36.344Z,6.70
2023-02-22T03:18:06.744Z,6.60
2023-02-22T03:20:46.748Z,6.60
2023-02-22T03:23:46.460Z,6.70
2023-02-22T03:26:23.930Z,6.70
2023-02-22T03:28:53.981Z,6.70
2023-02-22T03:31:31.891Z,6.70
2023-02-22T03:34:05.189Z,6.60
2023-02-22T03:36:42.619Z,6.50
2023-02-22T03:39:18.062Z,6.40
2023-02-22T03:41:53.559Z,6.30
2023-02-22T03:44:25.813Z,6.30
2023-02-22T03:46:56.833Z,6.40
2023-02-22T03:49:29.747Z,6.50
2023-02-22T03:51:57.224Z,6.50
2023-02-22T03:54:24.913Z,6.50
2023-02-22T03:57:00.698Z,6.50
2023-02-22T03:59:30.275Z,6.50
2023-02-22T04:01:58.132Z,6.40
2023-02-22T04:04:25.976Z,6.30
2023-02-22T04:06:56.019Z,6.20
2023-02-22T04:09:27.967Z,6.20
2023-02-22T04:11:55.280Z,6.10
2023-02-22T04:14:23.858Z,6.10
2023-02-22T04:16:51.210Z,6.10
2023-02-22T04:19:18.591Z,6.20
2023-02-22T04:21:45.790Z,6.20
2023-02-22T04:24:13.134Z,6.40
2023-02-22T04:26:40.645Z,6.40
2023-02-22T04:29:08.429Z,6.40
2023-02-22T04:31:35.801Z,6.50
2023-02-22T04:34:03.617Z,6.50
2023-02-22T04:36:33.786Z,6.30
2023-02-22T04:39:01.656Z,6.20
2023-02-22T04:41:28.899Z,6.00
2023-02-22T04:43:56.176Z,6.00
2023-02-22T04:46:25.996Z,6.00
2023-02-22T04:48:54.062Z,6.10
2023-02-22T04:51:21.331Z,6.10
2023-02-22T04:53:48.581Z,6.00
2023-02-22T04:56:20.514Z,6.00
2023-02-22T04:58:47.892Z,6.00
2023-02-22T05:01:16.689Z,6.10
2023-02-22T05:03:44.223Z,6.20
2023-02-22T05:06:13.949Z,6.10
2023-02-22T05:08:43.699Z,6.00
2023-02-22T05:11:13.275Z,5.90
2023-02-22T05:13:40.517Z,5.70
2023-02-22T05:16:12.312Z,5.80
2023-02-22T05:18:39.803Z,5.80
2023-02-22T05:21:07.065Z,5.90
2023-02-22T05:23:34.494Z,6.00
2023-02-22T05:26:06.546Z,6.10
2023-02-22T05:28:33.846Z,6.10
2023-02-22T05:31:03.659Z,6.20
2023-02-22T05:33:33.385Z,6.20
2023-02-22T05:36:00.624Z,6.10
2023-02-22T05:38:27.946Z,6.30
2023-02-22T05:40:55.318Z,6.30
2023-02-22T05:43:24.947Z,6.20
2023-02-22T05:45:52.186Z,6.10
2023-02-22T05:48:22.739Z,6.00
2023-02-22T05:50:52.517Z,6.00
2023-02-22T05:53:23.723Z,5.90
2023-02-22T05:55:51.858Z,6.00
2023-02-22T05:58:19.122Z,6.00
2023-02-22T06:00:46.368Z,6.00
2023-02-22T06:03:13.750Z,6.10
2023-02-22T06:05:45.490Z,6.20
2023-02-22T06:08:12.887Z,6.20
2023-02-22T06:10:40.138Z,6.30
2023-02-22T06:13:07.413Z,6.30
2023-02-22T06:15:34.703Z,6.30
2023-02-22T06:18:02.366Z,6.40
2023-02-22T06:20:33.392Z,6.50
2023-02-22T06:23:02.877Z,6.50
2023-02-22T06:25:31.894Z,6.60
2023-02-22T06:28:00.560Z,6.70
2023-02-22T06:30:28.838Z,6.70
2023-02-22T06:32:56.151Z,6.70
2023-02-22T06:35:25.862Z,6.50
2023-02-22T06:37:53.195Z,6.20
2023-02-22T06:40:22.906Z,5.90
2023-02-22T06:42:53.688Z,5.80
2023-02-22T06:45:23.563Z,5.80
2023-02-22T06:47:51.005Z,5.90
2023-02-22T06:50:26.271Z,6.10
2023-02-22T06:52:53.667Z,6.30
2023-02-22T06:55:25.863Z,6.20
2023-02-22T06:57:57.812Z,6.10
2023-02-22T07:00:29.147Z,6.00
2023-02-22T07:02:59.609Z,6.20
2023-02-22T07:05:30.521Z,6.40
2023-02-22T07:08:06.387Z,6.50
2023-02-22T07:10:35.058Z,6.50
2023-02-22T07:13:02.840Z,6.60
2023-02-22T07:15:31.512Z,6.40
2023-02-22T07:17:59.311Z,6.60
2023-02-22T07:20:30.612Z,6.70
2023-02-22T07:23:04.723Z,6.60
2023-02-22T07:25:34.265Z,6.80
2023-02-22T07:28:03.860Z,6.70
2023-02-22T07:30:35.011Z,6.60
2023-02-22T07:33:07.272Z,6.70
2023-02-22T07:35:43.331Z,6.60
2023-02-22T07:38:10.572Z,6.50
2023-02-22T07:40:44.873Z,6.40
2023-02-22T07:43:23.831Z,6.70
2023-02-22T07:45:55.219Z,7.00
2023-02-22T08:23:57.497Z,9.00
2023-02-22T08:26:25.592Z,9.20
2023-02-22T08:28:53.405Z,9.10
2023-02-22T08:31:21.284Z,9.20
2023-02-22T08:33:50.093Z,9.40
2023-02-22T08:36:18.747Z,9.50
2023-02-22T08:38:46.530Z,9.60
2023-02-22T08:41:15.067Z,9.90
2023-02-22T08:43:42.874Z,10.10
2023-02-22T08:46:10.606Z,10.20
2023-02-22T08:48:38.169Z,10.20
2023-02-22T08:51:05.950Z,10.20
2023-02-22T08:53:34.318Z,10.30
2023-02-22T08:56:01.920Z,10.60
2023-02-22T08:58:29.494Z,10.70
2023-02-22T09:00:57.365Z,11.10
2023-02-22T09:03:25.486Z,11.70
2023-02-22T09:05:53.212Z,12.10
2023-02-22T09:08:21.389Z,12.50
2023-02-22T09:10:50.626Z,12.80
2023-02-22T09:13:18.474Z,13.00
2023-02-22T09:15:46.529Z,12.90
2023-02-22T09:18:14.961Z,13.10
2023-02-22T09:20:42.812Z,12.90
2023-02-22T09:23:11.288Z,13.00
2023-02-22T09:25:41.159Z,13.00
2023-02-22T09:28:09.474Z,13.00
2023-02-22T09:30:37.796Z,12.50
2023-02-22T09:33:12.353Z,12.20
2023-02-22T09:35:46.636Z,12.10
2023-02-22T09:38:17.229Z,12.00
2023-02-22T09:40:54.541Z,11.60
2023-02-22T09:43:35.967Z,11.50
2023-02-22T09:46:26.629Z,11.60
2023-02-22T09:49:18.171Z,11.80
2023-02-22T09:52:00.462Z,11.60
2023-02-22T09:54:40.061Z,11.70
2023-02-22T09:57:16.657Z,11.70
2023-02-22T10:00:13.891Z,11.70
2023-02-22T10:03:26.266Z,11.80
2023-02-22T10:06:01.204Z,11.80
2023-02-22T10:08:33.452Z,11.40
2023-02-22T10:11:38.579Z,11.30
2023-02-22T10:14:38.767Z,10.90
2023-02-22T10:17:22.962Z,10.80
2023-02-22T10:20:13.670Z,11.00
2023-02-22T10:23:01.116Z,10.90
2023-02-22T10:25:35.212Z,10.80
2023-02-22T10:32:03.295Z,10.90
2023-02-22T10:34:43.746Z,10.80
2023-02-22T10:37:23.018Z,10.90
2023-02-22T10:39:53.796Z,10.80
2023-02-22T10:42:26.341Z,10.50
2023-02-22T10:44:54.051Z,10.50
2023-02-22T10:47:22.435Z,10.50
2023-02-22T10:50:09.619Z,10.60
2023-02-22T10:52:40.283Z,10.60
2023-02-22T10:55:34.998Z,10.70
2023-02-22T10:58:09.710Z,10.80
2023-02-22T11:00:40.663Z,10.70
2023-02-22T11:03:23.127Z,10.70
2023-02-22T11:05:51.066Z,10.80
2023-02-22T11:08:21.498Z,11.10
2023-02-22T11:10:54.392Z,11.30
2023-02-22T11:13:45.976Z,11.40
2023-02-22T11:16:27.413Z,11.80
2023-02-22T11:19:20.825Z,12.00
2023-02-22T11:21:51.757Z,12.20
2023-02-22T11:24:24.415Z,12.50
2023-02-22T11:26:58.330Z,12.60
2023-02-22T11:29:36.481Z,12.70
2023-02-22T11:32:21.610Z,12.70
2023-02-22T11:35:03.474Z,12.90
2023-02-22T11:37:37.519Z,13.10
2023-02-22T11:40:18.523Z,13.30
2023-02-22T11:43:16.279Z,13.50
2023-02-22T11:46:12.415Z,13.70
2023-02-22T11:48:45.411Z,13.60
2023-02-22T11:51:50.017Z,13.70
2023-02-22T11:54:49.593Z,13.70
2023-02-22T11:58:12.792Z,13.70
2023-02-22T12:01:07.393Z,13.50
2023-02-22T12:03:55.861Z,13.40
2023-02-22T12:07:01.276Z,13.70
2023-02-22T12:09:54.194Z,13.70
2023-02-22T12:12:51.730Z,14.00
2023-02-22T12:15:38.312Z,13.70
2023-02-22T12:18:31.498Z,13.70
2023-02-22T12:21:07.286Z,13.50
2023-02-22T12:23:40.850Z,13.40
2023-02-22T12:26:20.908Z,13.30
2023-02-22T12:28:59.555Z,13.30
2023-02-22T12:31:53.411Z,13.60
2023-02-22T12:34:50.176Z,13.90
2023-02-22T12:37:23.920Z,14.00
2023-02-22T12:40:09.085Z,14.10
2023-02-22T12:43:00.033Z,14.10
2023-02-22T12:45:30.532Z,14.20
2023-02-22T12:48:25.778Z,14.20
2023-02-22T12:51:04.478Z,14.40
2023-02-22T12:53:37.550Z,14.60
2023-02-22T12:56:26.163Z,14.20
2023-02-22T12:59:13.132Z,14.20
2023-02-22T13:01:50.841Z,14.00
2023-02-22T13:04:21.337Z,14.00
2023-02-22T13:07:04.303Z,14.00
2023-02-22T13:09:50.805Z,14.00
2023-02-22T13:13:04.312Z,14.00
2023-02-22T13:15:47.379Z,14.00
2023-02-22T13:18:49.900Z,14.10
2023-02-22T13:21:39.207Z,14.10
2023-02-22T13:24:31.105Z,14.20
2023-02-22T13:27:09.188Z,14.20
2023-02-22T13:29:42.190Z,14.00
2023-02-22T13:32:21.164Z,13.80
2023-02-22T13:35:23.447Z,13.80
2023-02-22T13:38:22.858Z,13.60
2023-02-22T13:41:24.434Z,13.80
2023-02-22T13:44:26.999Z,13.80
2023-02-22T13:47:27.956Z,13.80
2023-02-22T13:50:23.534Z,13.70
2023-02-22T13:52:54.744Z,13.90
2023-02-22T13:55:30.122Z,14.10
2023-02-22T13:58:04.664Z,13.90
2023-02-22T14:00:44.516Z,14.10
2023-02-22T14:03:15.056Z,14.00
2023-02-22T14:05:42.725Z,13.90
2023-02-22T14:08:38.143Z,13.70
2023-02-22T14:11:15.600Z,13.70
2023-02-22T14:14:01.119Z,13.50
2023-02-22T14:16:30.435Z,13.60
2023-02-22T14:19:13.535Z,13.50
2023-02-22T14:22:02.622Z,13.40
2023-02-22T14:24:44.502Z,13.20
2023-02-22T14:27:13.780Z,13.20
2023-02-22T14:29:54.657Z,13.10
2023-02-22T14:32:32.131Z,13.10
2023-02-22T14:35:14.327Z,13.00
2023-02-22T14:37:59.191Z,12.90
2023-02-22T14:40:32.867Z,13.00
2023-02-22T14:43:21.361Z,12.90
2023-02-22T14:45:57.300Z,12.80
2023-02-22T14:48:43.026Z,12.70
2023-02-22T14:51:21.868Z,12.80
2023-02-22T14:54:01.274Z,12.80
2023-02-22T14:56:41.309Z,12.80
2023-02-22T14:59:19.317Z,12.70
2023-02-22T15:02:01.523Z,12.80
2023-02-22T15:04:35.420Z,12.80
2023-02-22T15:07:22.204Z,12.80
2023-02-22T15:09:50.189Z,12.80
2023-02-22T15:12:30.117Z,12.80
2023-02-22T15:15:32.838Z,12.60
2023-02-22T15:18:00.488Z,12.60
2023-02-22T15:20:29.469Z,12.50
2023-02-22T15:23:00.668Z,12.50
2023-02-22T15:25:31.418Z,12.50
2023-02-22T15:28:04.440Z,12.60
2023-02-22T15:30:34.351Z,12.50
2023-02-22T15:33:24.449Z,12.50
2023-02-22T15:35:56.627Z,12.60
2023-02-22T15:38:31.250Z,12.50
2023-02-22T15:41:08.496Z,12.60
2023-02-22T15:43:36.006Z,12.50
2023-02-22T15:46:11.953Z,12.50
2023-02-22T15:48:41.380Z,12.60
2023-02-22T15:51:15.477Z,12.50
2023-02-22T15:53:49.442Z,12.50
2023-02-22T15:56:25.912Z,12.50
2023-02-22T15:59:01.164Z,12.50
2023-02-22T16:01:28.846Z,12.50
2023-02-22T16:03:59.901Z,12.50
2023-02-22T16:06:35.433Z,12.40
2023-02-22T16:09:26.205Z,12.30
2023-02-22T16:12:22.788Z,12.30
2023-02-22T16:14:52.620Z,12.30
2023-02-22T16:17:36.244Z,12.50
2023-02-22T16:20:13.391Z,12.30
2023-02-22T16:22:46.724Z,12.20
2023-02-22T16:25:22.277Z,12.10
2023-02-22T16:27:56.071Z,11.80
2023-02-22T16:30:35.828Z,11.70
2023-02-22T16:33:13.709Z,11.60
2023-02-22T16:35:51.771Z,11.70
2023-02-22T16:38:21.309Z,11.70
2023-02-22T16:40:55.366Z,11.70
2023-02-22T16:43:32.988Z,11.70
2023-02-22T16:46:02.206Z,11.60
2023-02-22T16:48:32.898Z,11.60
2023-02-22T16:51:24.772Z,11.50
2023-02-22T16:53:54.796Z,11.40
2023-02-22T16:56:30.913Z,11.30
2023-02-22T16:59:03.258Z,11.30
2023-02-22T17:01:30.776Z,11.20
2023-02-22T17:03:58.468Z,11.10
2023-02-22T17:06:26.481Z,11.20
2023-02-22T17:08:54.519Z,11.20
2023-02-22T17:11:22.571Z,11.20
2023-02-22T17:13:51.769Z,11.20
2023-02-22T17:16:19.685Z,11.30
2023-02-22T17:18:50.042Z,11.30
2023-02-22T17:21:17.651Z,11.20
2023-02-22T17:23:46.187Z,11.20
2023-02-22T17:26:15.078Z,11.20
2023-02-22T17:28:44.258Z,11.20
2023-02-22T17:31:20.796Z,11.20
2023-02-22T17:33:48.622Z,11.30
2023-02-22T17:36:16.549Z,11.30
2023-02-22T17:38:45.020Z,11.20
2023-02-22T17:41:13.221Z,11.40
2023-02-22T17:43:41.246Z,11.40
2023-02-22T17:46:09.505Z,11.50
2023-02-22T17:48:38.461Z,11.60
2023-02-22T17:51:11.707Z,11.60
2023-02-22T17:53:39.409Z,11.50
2023-02-22T17:56:13.520Z,11.40
2023-02-22T17:58:42.109Z,11.30
2023-02-22T18:01:29.935Z,11.30
2023-02-22T18:04:00.243Z,11.40
2023-02-22T18:06:30.388Z,11.60
2023-02-22T18:08:59.882Z,11.60
2023-02-22T18:11:32.765Z,11.50
2023-02-22T18:14:05.878Z,11.40
2023-02-22T18:16:34.029Z,11.30
2023-02-22T18:19:03.407Z,11.40
2023-02-22T18:21:31.750Z,11.40
2023-02-22T18:24:00.141Z,11.40
2023-02-22T18:26:28.743Z,11.50
2023-02-22T18:28:57.266Z,11.60
2023-02-22T18:31:25.409Z,11.70
2023-02-22T18:33:53.607Z,11.80
2023-02-22T18:36:23.426Z,11.70
2023-02-22T18:38:55.312Z,11.60
2023-02-22T18:41:28.725Z,11.60
2023-02-22T18:44:00.628Z,11.70
2023-02-22T18:46:30.292Z,11.60
2023-02-22T18:48:59.474Z,11.60
2023-02-22T18:51:29.786Z,11.30
2023-02-22T18:54:01.748Z,11.30
2023-02-22T18:56:30.803Z,11.30
2023-02-22T18:59:01.083Z,11.20
2023-02-22T19:01:30.597Z,11.20
2023-02-22T19:03:59.638Z,11.30
2023-02-22T19:06:27.674Z,11.30
2023-02-22T19:08:55.841Z,11.30
2023-02-22T19:11:25.099Z,11.40
2023-02-22T19:13:57.187Z,11.40
2023-02-22T19:16:27.027Z,11.40
2023-02-22T19:18:59.062Z,11.30
2023-02-22T19:21:29.724Z,11.30
2023-02-22T19:23:57.989Z,11.30
2023-02-22T19:26:28.112Z,11.20
2023-02-22T19:28:57.742Z,11.30
2023-02-22T19:31:31.694Z,11.30
2023-02-22T19:34:11.803Z,11.20
2023-02-22T19:36:41.042Z,11.20
2023-02-22T19:39:09.272Z,11.40
2023-02-22T19:41:38.523Z,11.40
2023-02-22T19:44:06.830Z,11.50
2023-02-22T19:46:35.941Z,11.50
2023-02-22T19:49:05.160Z,11.60
2023-02-22T19:51:34.201Z,11.60
2023-02-22T19:54:05.652Z,11.50
2023-02-22T19:56:35.695Z,11.40
2023-02-22T19:59:09.796Z,11.50
2023-02-22T20:01:37.770Z,11.50
2023-02-22T20:04:18.262Z,11.50
2023-02-22T20:06:48.508Z,11.70
2023-02-22T20:09:19.936Z,11.60
2023-02-22T20:11:48.695Z,11.70
2023-02-22T20:14:19.601Z,11.80
2023-02-22T20:16:48.248Z,11.80
2023-02-22T20:19:17.986Z,11.80
2023-02-22T20:21:45.642Z,11.80
2023-02-22T20:24:18.539Z,11.80
2023-02-22T20:26:48.080Z,12.00
2023-02-22T20:29:16.861Z,11.90
2023-02-22T20:31:49.957Z,11.90
2023-02-22T20:34:18.194Z,12.00
2023-02-22T20:36:46.048Z,12.10
2023-02-22T20:39:14.599Z,12.10
2023-02-22T20:41:44.387Z,12.20
2023-02-22T20:44:19.200Z,12.30
2023-02-22T20:46:48.247Z,12.30
2023-02-22T20:49:19.246Z,12.30
2023-02-22T20:51:48.819Z,12.20
2023-02-22T20:54:18.552Z,12.10
2023-02-22T20:56:48.562Z,11.90
2023-02-22T20:59:18.731Z,11.90
2023-02-22T21:01:50.653Z,11.70
2023-02-22T21:04:19.271Z,11.60
2023-02-22T21:06:48.965Z,11.60
2023-02-22T21:09:19.431Z,11.50
2023-02-22T21:11:47.560Z,11.50
2023-02-22T21:14:20.280Z,11.50
2023-02-22T21:16:51.432Z,11.40
2023-02-22T21:19:30.894Z,11.40
2023-02-22T21:22:01.648Z,11.30
2023-02-22T21:24:30.225Z,11.30
2023-02-22T21:27:00.730Z,11.20
2023-02-22T21:29:29.637Z,11.20
2023-02-22T21:31:57.703Z,11.30
2023-02-22T21:34:26.292Z,11.30
2023-02-22T21:36:54.488Z,11.40
2023-02-22T21:39:22.860Z,11.40
2023-02-22T21:41:52.141Z,11.50
2023-02-22T21:44:20.540Z,11.60
2023-02-22T21:46:49.980Z,11.70
2023-02-22T21:49:19.044Z,11.70
2023-02-22T21:51:46.597Z,11.80
2023-02-22T21:54:14.189Z,11.80
2023-02-22T21:56:43.526Z,11.80
2023-02-22T21:59:19.111Z,11.80
2023-02-22T22:01:50.256Z,11.70
2023-02-22T22:04:20.444Z,11.70
2023-02-22T22:06:51.042Z,11.80
2023-02-22T22:09:19.353Z,11.70
2023-02-22T22:11:49.943Z,11.80
2023-02-22T22:14:19.087Z,11.80
2023-02-22T22:16:48.414Z,11.80
2023-02-22T22:19:16.391Z,11.80
2023-02-22T22:21:44.043Z,11.80
2023-02-22T22:24:11.611Z,11.80
2023-02-22T22:26:39.798Z,11.70
2023-02-22T22:29:10.560Z,11.70
2023-02-22T22:31:38.896Z,11.70
2023-02-22T22:34:07.269Z,11.60
2023-02-22T22:36:36.108Z,11.40
2023-02-22T22:39:13.225Z,11.30
2023-02-22T22:41:44.445Z,11.30
2023-02-22T22:44:15.576Z,11.30
2023-02-22T22:46:44.044Z,11.20
2023-02-22T22:49:13.759Z,11.20
2023-02-22T22:51:42.721Z,11.20
2023-02-22T22:54:10.930Z,11.20
2023-02-22T22:56:38.850Z,11.30
2023-02-22T22:59:08.050Z,11.30
2023-02-22T23:01:41.285Z,11.20
2023-02-22T23:04:12.096Z,11.20
2023-02-22T23:06:50.806Z,11.20
2023-02-22T23:09:25.734Z,11.10
2023-02-22T23:11:53.634Z,11.00
2023-02-22T23:14:32.148Z,10.90
2023-02-22T23:17:03.767Z,10.90
2023-02-22T23:19:33.825Z,11.00
2023-02-22T23:22:05.454Z,11.20
2023-02-22T23:24:37.414Z,11.20
2023-02-22T23:27:10.987Z,11.30
2023-02-22T23:29:40.670Z,11.40
2023-02-22T23:32:09.109Z,11.30
2023-02-22T23:34:38.805Z,11.30
2023-02-22T23:37:10.227Z,11.30
2023-02-22T23:39:38.730Z,11.10
2023-02-22T23:42:09.013Z,11.10
2023-02-22T23:44:36.638Z,11.10
2023-02-22T23:47:04.956Z,11.10
2023-02-22T23:49:38.945Z,11.10
2023-02-22T23:52:08.503Z,11.10
2023-02-22T23:54:40.528Z,11.20
2023-02-22T23:57:09.091Z,11.20
2023-02-22T23:59:40.654Z,11.20
